THY6805 LTCV-LTAC
Flight info
| Callsign | THY6805 |
|---|---|
| Flight time | 1h 14m |
| Altitude | 36000 |
| Route | LTCV/29 N0458F360 ABDI1D ABDIK UW197 SRT UL614 JUPNE UT54 AVCES UL605 YUCEL YUCE1S LTAC/03C |
| Aircraft | B738/M-CDT/C |
Departure
| Time | 2026-05-05 03:56 |
|---|---|
| Airport | Şırnak Şerafettin Elçi Airport (LTCV) |
Arrival
| Time | 2026-05-05 05:11 |
|---|---|
| Airport | Esenboğa International Airport (LTAC) |
| Time | Latitude | Longitude | Altitude | Speed | Heading |
|---|---|---|---|---|---|
| 2026-05-05 03:40 | 37.36183 | 42.05880 | 2052 ft | 0 kts | 197° |
| 2026-05-05 03:50 | 37.36182 | 42.05880 | 2052 ft | 1 kts | 197° |
| 2026-05-05 03:51 | 37.36170 | 42.05875 | 2051 ft | 2 kts | 197° |
| 2026-05-05 03:51 | 37.36154 | 42.05869 | 2051 ft | 4 kts | 197° |
| 2026-05-05 03:51 | 37.36145 | 42.05838 | 2051 ft | 5 kts | 298° |
| 2026-05-05 03:51 | 37.36173 | 42.05842 | 2051 ft | 5 kts | 37° |
| 2026-05-05 03:52 | 37.36198 | 42.05866 | 2052 ft | 5 kts | 37° |
| 2026-05-05 03:52 | 37.36224 | 42.05890 | 2053 ft | 5 kts | 37° |
| 2026-05-05 03:52 | 37.36250 | 42.05913 | 2053 ft | 5 kts | 31° |
| 2026-05-05 03:52 | 37.36283 | 42.05937 | 2053 ft | 6 kts | 30° |
| 2026-05-05 03:53 | 37.36328 | 42.05966 | 2052 ft | 8 kts | 27° |
| 2026-05-05 03:53 | 37.36379 | 42.06015 | 2052 ft | 11 kts | 61° |
| 2026-05-05 03:53 | 37.36353 | 42.06116 | 2052 ft | 15 kts | 119° |
| 2026-05-05 03:53 | 37.36291 | 42.06261 | 2050 ft | 22 kts | 115° |
| 2026-05-05 03:54 | 37.36217 | 42.06459 | 2050 ft | 27 kts | 114° |
| 2026-05-05 03:54 | 37.36136 | 42.06680 | 2048 ft | 27 kts | 116° |
| 2026-05-05 03:54 | 37.36055 | 42.06887 | 2045 ft | 25 kts | 114° |
| 2026-05-05 03:54 | 37.35992 | 42.07084 | 2049 ft | 24 kts | 112° |
| 2026-05-05 03:55 | 37.35955 | 42.07276 | 2049 ft | 20 kts | 92° |
| 2026-05-05 03:55 | 37.35919 | 42.07357 | 2049 ft | 9 kts | 182° |
| 2026-05-05 03:55 | 37.35906 | 42.07291 | 2049 ft | 9 kts | 294° |
| 2026-05-05 03:55 | 37.36005 | 42.07041 | 2051 ft | 65 kts | 296° |
| 2026-05-05 03:56 | 37.36298 | 42.06269 | 2050 ft | 128 kts | 296° |
| 2026-05-05 03:56 | 37.36762 | 42.05061 | 2111 ft | 172 kts | 295° |
| 2026-05-05 03:56 | 37.37285 | 42.03689 | 2733 ft | 178 kts | 295° |
| 2026-05-05 03:56 | 37.37816 | 42.02278 | 3469 ft | 175 kts | 291° |
| 2026-05-05 03:57 | 37.37992 | 42.00867 | 4111 ft | 158 kts | 277° |
| 2026-05-05 03:57 | 37.38519 | 41.99623 | 4203 ft | 171 kts | 315° |
| 2026-05-05 03:57 | 37.39222 | 41.98411 | 4521 ft | 176 kts | 297° |
| 2026-05-05 03:57 | 37.39803 | 41.97027 | 4837 ft | 183 kts | 298° |
| 2026-05-05 03:58 | 37.40405 | 41.95594 | 5203 ft | 187 kts | 297° |
| 2026-05-05 03:58 | 37.41066 | 41.94160 | 5579 ft | 197 kts | 312° |
| 2026-05-05 03:58 | 37.42181 | 41.93072 | 5999 ft | 209 kts | 329° |
| 2026-05-05 03:58 | 37.43542 | 41.92333 | 6387 ft | 219 kts | 346° |
| 2026-05-05 03:59 | 37.45081 | 41.92081 | 6772 ft | 229 kts | 4° |
| 2026-05-05 03:59 | 37.46647 | 41.92605 | 7148 ft | 240 kts | 27° |
| 2026-05-05 03:59 | 37.47981 | 41.93914 | 7526 ft | 251 kts | 46° |
| 2026-05-05 03:59 | 37.49079 | 41.95708 | 7898 ft | 267 kts | 57° |
| 2026-05-05 04:00 | 37.50093 | 41.97707 | 8456 ft | 276 kts | 49° |
| 2026-05-05 04:00 | 37.51616 | 41.99207 | 9028 ft | 283 kts | 26° |
| 2026-05-05 04:00 | 37.53500 | 42.00045 | 9596 ft | 290 kts | 9° |
| 2026-05-05 04:00 | 37.55496 | 42.00050 | 10137 ft | 288 kts | 348° |
| 2026-05-05 04:01 | 37.57444 | 41.99454 | 10709 ft | 289 kts | 344° |
| 2026-05-05 04:01 | 37.59318 | 41.98454 | 11021 ft | 304 kts | 321° |
| 2026-05-05 04:01 | 37.60659 | 41.96312 | 11213 ft | 325 kts | 292° |
| 2026-05-05 04:01 | 37.61443 | 41.93542 | 11422 ft | 345 kts | 288° |
| 2026-05-05 04:02 | 37.62178 | 41.90641 | 11875 ft | 356 kts | 287° |
| 2026-05-05 04:02 | 37.62926 | 41.87649 | 12552 ft | 359 kts | 287° |
| 2026-05-05 04:02 | 37.63686 | 41.84639 | 13255 ft | 362 kts | 288° |
| 2026-05-05 04:02 | 37.64467 | 41.81599 | 13947 ft | 365 kts | 288° |
| 2026-05-05 04:03 | 37.65263 | 41.78546 | 14577 ft | 369 kts | 288° |
| 2026-05-05 04:03 | 37.66077 | 41.75452 | 15158 ft | 374 kts | 288° |
| 2026-05-05 04:03 | 37.66909 | 41.72314 | 15715 ft | 379 kts | 288° |
| 2026-05-05 04:03 | 37.67752 | 41.69145 | 16303 ft | 382 kts | 288° |
| 2026-05-05 04:04 | 37.68602 | 41.65953 | 16892 ft | 385 kts | 288° |
| 2026-05-05 04:04 | 37.69460 | 41.62735 | 17488 ft | 387 kts | 288° |
| 2026-05-05 04:04 | 37.70322 | 41.59497 | 18079 ft | 390 kts | 288° |
| 2026-05-05 04:04 | 37.71189 | 41.56239 | 18651 ft | 392 kts | 288° |
| 2026-05-05 04:05 | 37.72060 | 41.52963 | 19201 ft | 395 kts | 288° |
| 2026-05-05 04:05 | 37.72926 | 41.49704 | 19715 ft | 398 kts | 288° |
| 2026-05-05 04:05 | 37.73812 | 41.46361 | 20225 ft | 401 kts | 288° |
| 2026-05-05 04:05 | 37.74703 | 41.42997 | 20680 ft | 406 kts | 288° |
| 2026-05-05 04:06 | 37.75602 | 41.39600 | 21085 ft | 411 kts | 288° |
| 2026-05-05 04:06 | 37.76512 | 41.36153 | 21522 ft | 414 kts | 288° |
| 2026-05-05 04:06 | 37.77424 | 41.32695 | 21989 ft | 416 kts | 288° |
| 2026-05-05 04:06 | 37.78329 | 41.29259 | 22432 ft | 418 kts | 288° |
| 2026-05-05 04:07 | 37.79252 | 41.25751 | 22868 ft | 421 kts | 288° |
| 2026-05-05 04:07 | 37.80176 | 41.22234 | 23314 ft | 422 kts | 288° |
| 2026-05-05 04:07 | 37.81104 | 41.18697 | 23731 ft | 425 kts | 288° |
| 2026-05-05 04:07 | 37.82036 | 41.15138 | 24098 ft | 428 kts | 288° |
| 2026-05-05 04:08 | 37.82975 | 41.11549 | 24486 ft | 430 kts | 288° |
| 2026-05-05 04:08 | 37.83916 | 41.07946 | 24872 ft | 433 kts | 288° |
| 2026-05-05 04:08 | 37.84861 | 41.04321 | 25245 ft | 435 kts | 288° |
| 2026-05-05 04:08 | 37.85812 | 41.00673 | 25625 ft | 436 kts | 288° |
| 2026-05-05 04:09 | 37.86762 | 40.97019 | 25975 ft | 439 kts | 288° |
| 2026-05-05 04:09 | 37.87718 | 40.93339 | 26287 ft | 441 kts | 288° |
| 2026-05-05 04:09 | 37.88667 | 40.89679 | 26598 ft | 444 kts | 288° |
| 2026-05-05 04:09 | 37.89630 | 40.85957 | 26909 ft | 446 kts | 288° |
| 2026-05-05 04:10 | 37.90597 | 40.82219 | 27228 ft | 448 kts | 288° |
| 2026-05-05 04:10 | 37.91567 | 40.78463 | 27504 ft | 450 kts | 288° |
| 2026-05-05 04:10 | 37.92541 | 40.74684 | 27775 ft | 453 kts | 288° |
| 2026-05-05 04:10 | 37.93521 | 40.70878 | 28049 ft | 455 kts | 288° |
| 2026-05-05 04:11 | 37.94501 | 40.67063 | 28328 ft | 457 kts | 288° |
| 2026-05-05 04:11 | 37.95486 | 40.63227 | 28608 ft | 458 kts | 288° |
| 2026-05-05 04:11 | 37.96472 | 40.59377 | 28863 ft | 460 kts | 288° |
| 2026-05-05 04:11 | 37.97463 | 40.55505 | 29093 ft | 462 kts | 288° |
| 2026-05-05 04:12 | 37.98455 | 40.51619 | 29343 ft | 464 kts | 288° |
| 2026-05-05 04:12 | 37.99435 | 40.47779 | 29644 ft | 464 kts | 288° |
| 2026-05-05 04:12 | 38.00424 | 40.43892 | 30017 ft | 463 kts | 288° |
| 2026-05-05 04:12 | 38.01411 | 40.40011 | 30374 ft | 461 kts | 288° |
| 2026-05-05 04:13 | 38.02393 | 40.36142 | 30710 ft | 460 kts | 288° |
| 2026-05-05 04:13 | 38.03371 | 40.32283 | 31014 ft | 460 kts | 288° |
| 2026-05-05 04:13 | 38.04351 | 40.28411 | 31281 ft | 460 kts | 288° |
| 2026-05-05 04:13 | 38.05328 | 40.24544 | 31589 ft | 460 kts | 288° |
| 2026-05-05 04:14 | 38.06301 | 40.20689 | 31919 ft | 458 kts | 288° |
| 2026-05-05 04:14 | 38.07271 | 40.16838 | 32211 ft | 458 kts | 288° |
| 2026-05-05 04:14 | 38.08238 | 40.12990 | 32481 ft | 458 kts | 288° |
| 2026-05-05 04:14 | 38.09205 | 40.09140 | 32725 ft | 458 kts | 288° |
| 2026-05-05 04:15 | 38.10170 | 40.05293 | 33003 ft | 457 kts | 287° |
| 2026-05-05 04:15 | 38.11133 | 40.01446 | 33274 ft | 456 kts | 287° |
| 2026-05-05 04:15 | 38.12092 | 39.97608 | 33529 ft | 456 kts | 287° |
| 2026-05-05 04:15 | 38.13047 | 39.93781 | 33786 ft | 455 kts | 287° |
| 2026-05-05 04:16 | 38.14002 | 39.89946 | 34019 ft | 455 kts | 287° |
| 2026-05-05 04:16 | 38.14955 | 39.86115 | 34263 ft | 455 kts | 287° |
| 2026-05-05 04:16 | 38.15905 | 39.82290 | 34505 ft | 454 kts | 287° |
| 2026-05-05 04:16 | 38.16843 | 39.78508 | 34733 ft | 453 kts | 287° |
| 2026-05-05 04:17 | 38.17788 | 39.74689 | 34949 ft | 453 kts | 287° |
| 2026-05-05 04:17 | 38.18733 | 39.70866 | 35158 ft | 453 kts | 287° |
| 2026-05-05 04:17 | 38.19678 | 39.67039 | 35365 ft | 453 kts | 287° |
| 2026-05-05 04:17 | 38.20620 | 39.63216 | 35521 ft | 454 kts | 287° |
| 2026-05-05 04:18 | 38.21563 | 39.59383 | 35744 ft | 453 kts | 287° |
| 2026-05-05 04:18 | 38.22499 | 39.55571 | 35925 ft | 453 kts | 287° |
| 2026-05-05 04:18 | 38.24365 | 39.47959 | 35991 ft | 449 kts | 287° |
| 2026-05-05 04:19 | 38.26226 | 39.40338 | 36010 ft | 453 kts | 287° |
| 2026-05-05 04:19 | 38.28102 | 39.32635 | 36007 ft | 458 kts | 287° |
| 2026-05-05 04:20 | 38.29994 | 39.24841 | 36011 ft | 462 kts | 287° |
| 2026-05-05 04:20 | 38.31858 | 39.17138 | 35997 ft | 454 kts | 287° |
| 2026-05-05 04:21 | 38.33702 | 39.09492 | 36000 ft | 448 kts | 287° |
| 2026-05-05 04:21 | 38.35522 | 39.01920 | 35987 ft | 446 kts | 287° |
| 2026-05-05 04:22 | 38.37346 | 38.94310 | 36007 ft | 452 kts | 287° |
| 2026-05-05 04:22 | 38.39191 | 38.86584 | 36012 ft | 458 kts | 287° |
| 2026-05-05 04:23 | 38.41050 | 38.78778 | 35994 ft | 460 kts | 287° |
| 2026-05-05 04:23 | 38.42870 | 38.71106 | 35989 ft | 449 kts | 287° |
| 2026-05-05 04:24 | 38.44669 | 38.63503 | 36003 ft | 447 kts | 287° |
| 2026-05-05 04:25 | 38.47357 | 38.52092 | 36003 ft | 448 kts | 287° |
| 2026-05-05 04:25 | 38.49145 | 38.44472 | 36001 ft | 449 kts | 287° |
| 2026-05-05 04:26 | 38.50931 | 38.36832 | 36004 ft | 450 kts | 286° |
| 2026-05-05 04:26 | 38.52719 | 38.29163 | 36003 ft | 450 kts | 286° |
| 2026-05-05 04:27 | 38.54502 | 38.21489 | 36002 ft | 451 kts | 286° |
| 2026-05-05 04:27 | 38.56273 | 38.13842 | 36004 ft | 452 kts | 286° |
| 2026-05-05 04:28 | 38.58051 | 38.06137 | 35997 ft | 453 kts | 286° |
| 2026-05-05 04:28 | 38.59831 | 37.98400 | 35999 ft | 453 kts | 286° |
| 2026-05-05 04:29 | 38.61606 | 37.90655 | 36003 ft | 454 kts | 286° |
| 2026-05-05 04:29 | 38.63381 | 37.82885 | 35998 ft | 456 kts | 286° |
| 2026-05-05 04:30 | 38.65156 | 37.75092 | 36001 ft | 457 kts | 286° |
| 2026-05-05 04:30 | 38.66920 | 37.67319 | 36010 ft | 458 kts | 286° |
| 2026-05-05 04:31 | 38.68691 | 37.59486 | 36001 ft | 459 kts | 286° |
| 2026-05-05 04:31 | 38.70462 | 37.51629 | 36003 ft | 459 kts | 286° |
| 2026-05-05 04:32 | 38.72226 | 37.43776 | 36003 ft | 459 kts | 286° |
| 2026-05-05 04:32 | 38.73987 | 37.35907 | 36001 ft | 459 kts | 286° |
| 2026-05-05 04:33 | 38.75739 | 37.28052 | 35995 ft | 458 kts | 286° |
| 2026-05-05 04:33 | 38.77471 | 37.20260 | 36001 ft | 457 kts | 285° |
| 2026-05-05 04:34 | 38.79204 | 37.12432 | 35999 ft | 456 kts | 285° |
| 2026-05-05 04:34 | 38.80931 | 37.04610 | 35998 ft | 456 kts | 285° |
| 2026-05-05 04:35 | 38.82652 | 36.96785 | 36002 ft | 456 kts | 285° |
| 2026-05-05 04:35 | 38.84366 | 36.88962 | 36002 ft | 456 kts | 285° |
| 2026-05-05 04:36 | 38.86077 | 36.81129 | 36003 ft | 456 kts | 285° |
| 2026-05-05 04:36 | 38.87782 | 36.73292 | 36004 ft | 456 kts | 285° |
| 2026-05-05 04:37 | 38.89485 | 36.65441 | 36000 ft | 457 kts | 285° |
| 2026-05-05 04:37 | 38.91175 | 36.57618 | 36002 ft | 457 kts | 285° |
| 2026-05-05 04:38 | 38.92870 | 36.49747 | 36000 ft | 458 kts | 285° |
| 2026-05-05 04:38 | 38.94559 | 36.41872 | 36000 ft | 456 kts | 285° |
| 2026-05-05 04:39 | 38.96237 | 36.34020 | 35996 ft | 456 kts | 285° |
| 2026-05-05 04:39 | 38.97918 | 36.26129 | 36006 ft | 459 kts | 285° |
| 2026-05-05 04:40 | 38.99316 | 36.19545 | 36009 ft | 461 kts | 285° |
| 2026-05-05 04:40 | 39.01002 | 36.11574 | 36000 ft | 462 kts | 285° |
| 2026-05-05 04:41 | 39.02953 | 36.02316 | 35997 ft | 460 kts | 285° |
| 2026-05-05 04:41 | 39.04617 | 35.94384 | 35995 ft | 458 kts | 285° |
| 2026-05-05 04:42 | 39.06000 | 35.87772 | 35993 ft | 456 kts | 285° |
| 2026-05-05 04:42 | 39.07638 | 35.79914 | 35997 ft | 453 kts | 285° |
| 2026-05-05 04:43 | 39.09252 | 35.72144 | 35997 ft | 451 kts | 285° |
| 2026-05-05 04:43 | 39.10865 | 35.64347 | 35994 ft | 450 kts | 285° |
| 2026-05-05 04:44 | 39.12477 | 35.56531 | 35700 ft | 458 kts | 285° |
| 2026-05-05 04:44 | 39.13297 | 35.52544 | 35334 ft | 462 kts | 284° |
| 2026-05-05 04:44 | 39.14118 | 35.48541 | 34958 ft | 460 kts | 284° |
| 2026-05-05 04:44 | 39.14931 | 35.44569 | 34585 ft | 456 kts | 284° |
| 2026-05-05 04:45 | 39.15739 | 35.40619 | 34220 ft | 456 kts | 284° |
| 2026-05-05 04:45 | 39.16546 | 35.36665 | 33847 ft | 457 kts | 284° |
| 2026-05-05 04:45 | 39.17352 | 35.32708 | 33477 ft | 457 kts | 284° |
| 2026-05-05 04:45 | 39.18158 | 35.28741 | 33105 ft | 457 kts | 284° |
| 2026-05-05 04:46 | 39.18958 | 35.24798 | 32719 ft | 452 kts | 284° |
| 2026-05-05 04:46 | 39.19746 | 35.20905 | 32339 ft | 446 kts | 284° |
| 2026-05-05 04:46 | 39.20530 | 35.17029 | 31983 ft | 452 kts | 284° |
| 2026-05-05 04:46 | 39.21335 | 35.13035 | 31634 ft | 466 kts | 284° |
| 2026-05-05 04:47 | 39.22154 | 35.08968 | 31271 ft | 473 kts | 284° |
| 2026-05-05 04:47 | 39.22980 | 35.04858 | 30879 ft | 469 kts | 284° |
| 2026-05-05 04:47 | 39.23790 | 35.00822 | 30502 ft | 462 kts | 284° |
| 2026-05-05 04:47 | 39.24588 | 34.96834 | 30125 ft | 455 kts | 284° |
| 2026-05-05 04:48 | 39.25368 | 34.92931 | 29754 ft | 453 kts | 284° |
| 2026-05-05 04:48 | 39.26150 | 34.89011 | 29377 ft | 450 kts | 284° |
| 2026-05-05 04:48 | 39.26926 | 34.85113 | 29003 ft | 448 kts | 284° |
| 2026-05-05 04:48 | 39.27697 | 34.81232 | 28629 ft | 445 kts | 284° |
| 2026-05-05 04:49 | 39.28465 | 34.77359 | 28252 ft | 443 kts | 284° |
| 2026-05-05 04:49 | 39.29224 | 34.73519 | 27881 ft | 441 kts | 284° |
| 2026-05-05 04:49 | 39.29982 | 34.69686 | 27508 ft | 440 kts | 284° |
| 2026-05-05 04:49 | 39.30735 | 34.65864 | 27132 ft | 438 kts | 284° |
| 2026-05-05 04:50 | 39.31483 | 34.62063 | 26758 ft | 436 kts | 284° |
| 2026-05-05 04:50 | 39.32229 | 34.58268 | 26384 ft | 434 kts | 284° |
| 2026-05-05 04:50 | 39.32970 | 34.54489 | 26012 ft | 433 kts | 284° |
| 2026-05-05 04:50 | 39.33705 | 34.50729 | 25633 ft | 430 kts | 284° |
| 2026-05-05 04:51 | 39.34436 | 34.46992 | 25257 ft | 428 kts | 284° |
| 2026-05-05 04:51 | 39.35150 | 34.43326 | 24892 ft | 426 kts | 284° |
| 2026-05-05 04:51 | 39.35872 | 34.39616 | 24518 ft | 423 kts | 284° |
| 2026-05-05 04:51 | 39.36586 | 34.35941 | 24141 ft | 420 kts | 284° |
| 2026-05-05 04:52 | 39.37293 | 34.32296 | 23768 ft | 418 kts | 284° |
| 2026-05-05 04:52 | 39.37995 | 34.28668 | 23397 ft | 415 kts | 284° |
| 2026-05-05 04:52 | 39.38696 | 34.25042 | 23014 ft | 413 kts | 284° |
| 2026-05-05 04:52 | 39.39389 | 34.21451 | 22641 ft | 410 kts | 284° |
| 2026-05-05 04:53 | 39.40075 | 34.17885 | 22265 ft | 408 kts | 284° |
| 2026-05-05 04:53 | 39.40757 | 34.14336 | 21891 ft | 406 kts | 284° |
| 2026-05-05 04:53 | 39.41435 | 34.10804 | 21516 ft | 404 kts | 284° |
| 2026-05-05 04:53 | 39.42101 | 34.07327 | 21146 ft | 402 kts | 284° |
| 2026-05-05 04:54 | 39.42770 | 34.03825 | 20775 ft | 400 kts | 284° |
| 2026-05-05 04:54 | 39.43433 | 34.00353 | 20442 ft | 397 kts | 284° |
| 2026-05-05 04:54 | 39.44093 | 33.96886 | 20116 ft | 394 kts | 284° |
| 2026-05-05 04:54 | 39.44744 | 33.93465 | 19788 ft | 391 kts | 284° |
| 2026-05-05 04:55 | 39.45391 | 33.90055 | 19464 ft | 388 kts | 284° |
| 2026-05-05 04:55 | 39.46031 | 33.86680 | 19140 ft | 386 kts | 283° |
| 2026-05-05 04:55 | 39.46668 | 33.83312 | 18813 ft | 384 kts | 283° |
| 2026-05-05 04:55 | 39.47306 | 33.79959 | 18490 ft | 382 kts | 285° |
| 2026-05-05 04:56 | 39.48262 | 33.76781 | 18157 ft | 380 kts | 297° |
| 2026-05-05 04:56 | 39.49657 | 33.73916 | 17817 ft | 379 kts | 305° |
| 2026-05-05 04:56 | 39.51197 | 33.71155 | 17446 ft | 379 kts | 306° |
| 2026-05-05 04:56 | 39.52748 | 33.68411 | 17073 ft | 378 kts | 306° |
| 2026-05-05 04:57 | 39.54300 | 33.65661 | 16696 ft | 376 kts | 306° |
| 2026-05-05 04:57 | 39.55834 | 33.62928 | 16320 ft | 375 kts | 306° |
| 2026-05-05 04:57 | 39.57359 | 33.60196 | 15945 ft | 372 kts | 306° |
| 2026-05-05 04:57 | 39.58864 | 33.57487 | 15567 ft | 368 kts | 305° |
| 2026-05-05 04:58 | 39.60342 | 33.54818 | 15190 ft | 363 kts | 305° |
| 2026-05-05 04:58 | 39.61806 | 33.52169 | 14811 ft | 358 kts | 305° |
| 2026-05-05 04:58 | 39.63244 | 33.49563 | 14437 ft | 354 kts | 305° |
| 2026-05-05 04:58 | 39.64667 | 33.46979 | 14059 ft | 350 kts | 305° |
| 2026-05-05 04:59 | 39.66076 | 33.44420 | 13684 ft | 346 kts | 305° |
| 2026-05-05 04:59 | 39.67460 | 33.41904 | 13291 ft | 337 kts | 305° |
| 2026-05-05 04:59 | 39.68803 | 33.39460 | 12931 ft | 326 kts | 305° |
| 2026-05-05 04:59 | 39.70096 | 33.37106 | 12602 ft | 315 kts | 305° |
| 2026-05-05 05:00 | 39.71350 | 33.34823 | 12266 ft | 306 kts | 305° |
| 2026-05-05 05:00 | 39.72567 | 33.32602 | 11932 ft | 298 kts | 305° |
| 2026-05-05 05:00 | 39.73752 | 33.30440 | 11599 ft | 290 kts | 305° |
| 2026-05-05 05:00 | 39.74912 | 33.28322 | 11266 ft | 284 kts | 305° |
| 2026-05-05 05:01 | 39.76040 | 33.26261 | 10948 ft | 277 kts | 305° |
| 2026-05-05 05:01 | 39.77140 | 33.24249 | 10668 ft | 269 kts | 305° |
| 2026-05-05 05:01 | 39.78195 | 33.22320 | 10431 ft | 263 kts | 305° |
| 2026-05-05 05:01 | 39.79249 | 33.20391 | 10180 ft | 261 kts | 305° |
| 2026-05-05 05:02 | 39.80301 | 33.18464 | 9921 ft | 259 kts | 305° |
| 2026-05-05 05:02 | 39.81339 | 33.16560 | 9680 ft | 257 kts | 305° |
| 2026-05-05 05:02 | 39.82370 | 33.14669 | 9428 ft | 256 kts | 305° |
| 2026-05-05 05:02 | 39.83246 | 33.13062 | 9215 ft | 255 kts | 305° |
| 2026-05-05 05:03 | 39.84268 | 33.11186 | 8965 ft | 253 kts | 305° |
| 2026-05-05 05:03 | 39.85285 | 33.09317 | 8714 ft | 252 kts | 305° |
| 2026-05-05 05:03 | 39.86294 | 33.07462 | 8457 ft | 251 kts | 305° |
| 2026-05-05 05:03 | 39.87300 | 33.05613 | 8216 ft | 249 kts | 305° |
| 2026-05-05 05:04 | 39.88286 | 33.03799 | 7990 ft | 247 kts | 305° |
| 2026-05-05 05:04 | 39.89272 | 33.01981 | 7775 ft | 244 kts | 305° |
| 2026-05-05 05:04 | 39.90250 | 33.00179 | 7617 ft | 236 kts | 305° |
| 2026-05-05 05:04 | 39.91168 | 32.98488 | 7420 ft | 228 kts | 305° |
| 2026-05-05 05:05 | 39.92063 | 32.96837 | 7213 ft | 219 kts | 305° |
| 2026-05-05 05:05 | 39.92941 | 32.95217 | 6983 ft | 211 kts | 305° |
| 2026-05-05 05:05 | 39.93764 | 32.93699 | 6758 ft | 200 kts | 305° |
| 2026-05-05 05:05 | 39.94539 | 32.92267 | 6548 ft | 192 kts | 305° |
| 2026-05-05 05:06 | 39.95292 | 32.90878 | 6337 ft | 182 kts | 304° |
| 2026-05-05 05:06 | 39.95994 | 32.89578 | 6163 ft | 168 kts | 304° |
| 2026-05-05 05:06 | 39.96639 | 32.88386 | 6035 ft | 158 kts | 304° |
| 2026-05-05 05:06 | 39.97338 | 32.87302 | 5789 ft | 156 kts | 324° |
| 2026-05-05 05:07 | 39.98346 | 32.86829 | 5612 ft | 157 kts | 353° |
| 2026-05-05 05:07 | 39.99420 | 32.87057 | 5393 ft | 158 kts | 25° |
| 2026-05-05 05:07 | 40.00321 | 32.87868 | 5216 ft | 157 kts | 35° |
| 2026-05-05 05:07 | 40.01219 | 32.88696 | 5002 ft | 158 kts | 34° |
| 2026-05-05 05:08 | 40.02112 | 32.89523 | 4762 ft | 157 kts | 35° |
| 2026-05-05 05:08 | 40.02995 | 32.90349 | 4518 ft | 156 kts | 35° |
| 2026-05-05 05:08 | 40.03857 | 32.91161 | 4325 ft | 154 kts | 35° |
| 2026-05-05 05:08 | 40.04731 | 32.91984 | 4162 ft | 155 kts | 35° |
| 2026-05-05 05:09 | 40.05605 | 32.92808 | 3984 ft | 155 kts | 35° |
| 2026-05-05 05:09 | 40.06477 | 32.93632 | 3812 ft | 154 kts | 35° |
| 2026-05-05 05:09 | 40.07343 | 32.94453 | 3634 ft | 154 kts | 35° |
| 2026-05-05 05:09 | 40.08130 | 32.95200 | 3498 ft | 153 kts | 35° |
| 2026-05-05 05:10 | 40.08989 | 32.96016 | 3368 ft | 153 kts | 36° |
| 2026-05-05 05:10 | 40.09837 | 32.96822 | 3258 ft | 152 kts | 36° |
| 2026-05-05 05:10 | 40.10693 | 32.97636 | 3170 ft | 152 kts | 36° |
| 2026-05-05 05:10 | 40.11548 | 32.98450 | 3122 ft | 151 kts | 36° |
| 2026-05-05 05:11 | 40.12302 | 32.99160 | 3117 ft | 98 kts | 38° |
| 2026-05-05 05:11 | 40.12588 | 32.99457 | 3120 ft | 11 kts | 51° |
| 2026-05-05 05:11 | 40.12594 | 32.99527 | 3121 ft | 7 kts | 92° |
| 2026-05-05 05:11 | 40.12592 | 32.99599 | 3121 ft | 9 kts | 92° |
| 2026-05-05 05:12 | 40.12589 | 32.99691 | 3121 ft | 11 kts | 92° |
| 2026-05-05 05:12 | 40.12587 | 32.99802 | 3122 ft | 13 kts | 92° |
| 2026-05-05 05:12 | 40.12609 | 32.99904 | 3122 ft | 11 kts | 42° |
| 2026-05-05 05:12 | 40.12661 | 32.99950 | 3122 ft | 8 kts | 37° |
| 2026-05-05 05:13 | 40.12703 | 32.99986 | 3122 ft | 6 kts | 36° |
| 2026-05-05 05:13 | 40.12734 | 33.00022 | 3122 ft | 7 kts | 48° |
| 2026-05-05 05:13 | 40.12732 | 33.00081 | 3122 ft | 7 kts | 120° |
| 2026-05-05 05:13 | 40.12729 | 33.00088 | 3122 ft | 0 kts | 121° |